createdAt,value
2019-03-02T00:03:02.878Z,7.40
2019-03-02T00:09:02.828Z,7.40
2019-03-02T00:11:52.927Z,7.40
2019-03-02T00:15:20.574Z,7.40
2019-03-02T00:18:29.307Z,7.40
2019-03-02T00:21:31.388Z,7.50
2019-03-02T00:29:28.470Z,7.40
2019-03-02T00:32:27.366Z,7.50
2019-03-02T00:35:18.261Z,7.50
2019-03-02T00:37:55.693Z,7.50
2019-03-02T00:40:55.209Z,7.40
2019-03-02T00:43:59.816Z,7.40
2019-03-02T00:46:48.103Z,7.40
2019-03-02T00:49:29.625Z,7.20
2019-03-02T00:52:09.570Z,7.20
2019-03-02T00:55:17.783Z,7.20
2019-03-02T00:57:57.458Z,7.10
2019-03-02T01:00:36.498Z,7.10
2019-03-02T01:03:31.648Z,7.10
2019-03-02T01:06:12.627Z,7.00
2019-03-02T01:09:11.692Z,7.10
2019-03-02T01:11:56.689Z,7.00
2019-03-02T01:14:46.323Z,7.00
2019-03-02T01:17:18.846Z,7.00
2019-03-02T01:19:54.757Z,7.00
2019-03-02T01:22:51.830Z,7.10
2019-03-02T01:25:32.658Z,7.20
2019-03-02T01:28:11.102Z,7.10
2019-03-02T01:31:05.233Z,7.20
2019-03-02T01:33:45.895Z,7.20
2019-03-02T01:36:21.845Z,7.20
2019-03-02T01:39:02.150Z,7.20
2019-03-02T01:41:50.997Z,7.20
2019-03-02T01:44:25.849Z,7.20
2019-03-02T01:47:01.447Z,7.20
2019-03-02T01:49:42.639Z,7.20
2019-03-02T01:52:19.519Z,7.20
2019-03-02T01:55:04.960Z,7.20
2019-03-02T01:57:39.437Z,7.20
2019-03-02T02:00:29.558Z,7.10
2019-03-02T02:03:12.101Z,7.20
2019-03-02T02:05:53.013Z,7.10
2019-03-02T02:08:30.749Z,7.20
2019-03-02T02:11:02.191Z,7.10
2019-03-02T02:13:42.813Z,7.10
2019-03-02T02:16:18.063Z,7.20
2019-03-02T02:18:54.201Z,7.20
2019-03-02T02:21:31.492Z,7.10
2019-03-02T02:24:06.881Z,7.10
2019-03-02T02:26:50.209Z,7.10
2019-03-02T02:29:32.024Z,7.10
2019-03-02T02:32:13.367Z,7.10
2019-03-02T02:34:56.384Z,7.10
2019-03-02T02:37:37.053Z,7.10
2019-03-02T02:40:13.866Z,7.10
2019-03-02T02:42:48.883Z,7.10
2019-03-02T02:45:42.142Z,7.10
2019-03-02T02:48:17.170Z,7.10
2019-03-02T02:50:51.799Z,7.10
2019-03-02T02:53:26.536Z,7.10
2019-03-02T02:56:05.654Z,7.10
2019-03-02T02:58:55.576Z,7.10
2019-03-02T03:01:23.085Z,7.10
2019-03-02T03:04:01.043Z,7.10
2019-03-02T03:06:36.372Z,7.10
2019-03-02T03:09:18.181Z,7.10
2019-03-02T03:11:49.186Z,7.00
2019-03-02T03:14:26.226Z,7.00
2019-03-02T03:16:57.757Z,7.00
2019-03-02T03:19:30.943Z,7.00
2019-03-02T03:22:07.483Z,7.00
2019-03-02T03:24:40.614Z,7.10
2019-03-02T03:27:13.242Z,7.00
2019-03-02T03:29:49.438Z,7.00
2019-03-02T03:32:22.986Z,7.10
2019-03-02T03:34:53.856Z,7.10
2019-03-02T03:37:24.775Z,7.10
2019-03-02T03:39:56.997Z,7.10
2019-03-02T03:42:28.935Z,7.10
2019-03-02T03:45:06.451Z,7.20
2019-03-02T03:47:40.448Z,7.10
2019-03-02T03:50:18.392Z,7.20
2019-03-02T03:52:55.851Z,7.10
2019-03-02T03:55:36.698Z,7.10
2019-03-02T03:58:13.137Z,7.20
2019-03-02T04:00:49.536Z,7.10
2019-03-02T04:03:21.447Z,7.20
2019-03-02T04:06:09.735Z,7.20
2019-03-02T04:08:43.442Z,7.10
2019-03-02T04:11:14.420Z,7.20
2019-03-02T04:13:50.856Z,7.20
2019-03-02T04:16:25.196Z,7.20
2019-03-02T04:19:07.176Z,7.20
2019-03-02T04:21:47.297Z,7.20
2019-03-02T04:24:23.844Z,7.20
2019-03-02T04:27:15.266Z,7.20
2019-03-02T04:30:32.932Z,7.20
2019-03-02T04:33:11.251Z,7.20
2019-03-02T04:35:55.942Z,7.20
2019-03-02T04:38:52.720Z,7.20
2019-03-02T04:41:43.427Z,7.20
2019-03-02T04:45:14.417Z,7.20
2019-03-02T04:48:09.115Z,7.20
2019-03-02T04:50:48.526Z,7.20
2019-03-02T04:54:46.899Z,7.20
2019-03-02T04:57:23.618Z,7.20
2019-03-02T05:00:23.245Z,7.20
2019-03-02T05:02:57.385Z,7.20
2019-03-02T05:05:44.633Z,7.40
2019-03-02T05:08:28.402Z,7.30
2019-03-02T05:11:10.382Z,7.30
2019-03-02T05:13:41.459Z,7.30
2019-03-02T05:16:25.520Z,7.30
2019-03-02T05:19:38.899Z,7.30
2019-03-02T05:22:42.135Z,7.30
2019-03-02T05:25:51.647Z,7.30
2019-03-02T05:28:30.609Z,7.30
2019-03-02T05:31:09.406Z,7.30
2019-03-02T05:33:52.008Z,7.30
2019-03-02T05:36:28.168Z,7.30
2019-03-02T05:39:09.693Z,7.30
2019-03-02T05:41:44.990Z,7.30
2019-03-02T05:44:28.955Z,7.40
2019-03-02T05:47:15.271Z,7.40
2019-03-02T05:49:57.844Z,7.30
2019-03-02T05:52:36.617Z,7.30
2019-03-02T05:55:40.552Z,7.40
2019-03-02T05:58:19.585Z,7.40
2019-03-02T06:01:12.999Z,7.40
2019-03-02T06:04:06.033Z,7.40
2019-03-02T06:06:53.762Z,7.40
2019-03-02T06:09:29.963Z,7.40
2019-03-02T06:12:15.416Z,7.30
2019-03-02T06:15:00.243Z,7.50
2019-03-02T06:17:45.802Z,7.50
2019-03-02T06:20:26.220Z,7.50
2019-03-02T06:23:05.179Z,7.50
2019-03-02T06:25:47.899Z,7.50
2019-03-02T06:28:32.599Z,7.50
2019-03-02T06:31:41.199Z,7.50
2019-03-02T06:34:45.049Z,7.50
2019-03-02T06:37:25.515Z,7.40
2019-03-02T06:40:23.669Z,7.30
2019-03-02T06:43:21.500Z,7.20
2019-03-02T06:46:15.673Z,7.20
2019-03-02T06:49:16.734Z,7.30
2019-03-02T06:52:25.155Z,7.10
2019-03-02T06:55:11.518Z,7.10
2019-03-02T06:58:15.703Z,7.00
2019-03-02T07:01:39.585Z,7.00
2019-03-02T07:04:13.080Z,7.10
2019-03-02T07:07:27.516Z,7.10
2019-03-02T07:10:05.328Z,7.10
2019-03-02T07:12:52.659Z,7.10
2019-03-02T07:19:24.016Z,7.20
2019-03-02T07:22:33.345Z,7.20
2019-03-02T07:25:22.921Z,7.30
2019-03-02T07:28:11.606Z,7.40
2019-03-02T07:32:08.381Z,7.40
2019-03-02T07:34:50.639Z,7.40
2019-03-02T07:41:54.356Z,7.60
2019-03-02T07:48:47.519Z,7.70
2019-03-02T07:58:45.706Z,7.70
2019-03-02T08:01:35.542Z,7.80
2019-03-02T08:05:03.455Z,7.80
2019-03-02T08:11:45.473Z,7.80
2019-03-02T08:14:35.711Z,7.80
2019-03-02T08:17:53.912Z,7.90
2019-03-02T08:20:32.376Z,8.10
2019-03-02T08:23:20.162Z,8.30
2019-03-02T08:26:16.112Z,8.40
2019-03-02T08:30:39.365Z,8.30
2019-03-02T08:31:42.044Z,8.30
2019-03-02T08:34:55.023Z,8.30
2019-03-02T08:45:20.705Z,8.50
2019-03-02T08:51:29.194Z,8.50
2019-03-02T08:54:27.634Z,8.50
2019-03-02T09:01:03.435Z,8.50
2019-03-02T09:07:20.456Z,8.50
2019-03-02T09:11:12.111Z,8.60
2019-03-02T09:14:37.262Z,8.70
2019-03-02T09:17:36.913Z,8.80
2019-03-02T09:20:32.332Z,8.70
2019-03-02T09:23:28.562Z,8.60
2019-03-02T09:26:36.290Z,8.20
2019-03-02T09:29:44.976Z,8.70
2019-03-02T09:32:57.738Z,8.60
2019-03-02T09:36:04.385Z,8.60
2019-03-02T09:38:57.400Z,8.50
2019-03-02T09:41:33.617Z,8.90
2019-03-02T09:44:32.818Z,8.70
2019-03-02T09:50:56.430Z,8.70
2019-03-02T09:53:52.384Z,8.70
2019-03-02T09:56:51.552Z,8.80
2019-03-02T09:59:50.722Z,8.90
2019-03-02T10:02:54.271Z,8.80
2019-03-02T10:06:17.455Z,8.90
2019-03-02T10:13:50.148Z,8.90
2019-03-02T10:25:43.378Z,9.80
2019-03-02T10:32:46.212Z,10.40
2019-03-02T10:36:19.925Z,10.50
2019-03-02T10:47:37.965Z,11.00
2019-03-02T10:50:56.027Z,11.20
2019-03-02T10:54:18.346Z,11.40
2019-03-02T10:57:54.832Z,11.50
2019-03-02T11:01:21.104Z,11.60
2019-03-02T11:09:04.001Z,11.60
2019-03-02T11:12:45.766Z,11.70
2019-03-02T11:15:43.557Z,11.50
2019-03-02T11:22:38.320Z,11.10
2019-03-02T11:49:42.477Z,11.70
2019-03-02T11:53:04.610Z,11.90
2019-03-02T11:56:26.605Z,11.80
2019-03-02T11:59:41.997Z,11.60
2019-03-02T12:03:02.645Z,11.80
2019-03-02T12:10:05.316Z,11.90
2019-03-02T12:21:07.021Z,12.20
2019-03-02T12:24:44.148Z,12.10
2019-03-02T12:32:07.385Z,12.10
2019-03-02T12:35:14.651Z,12.00
2019-03-02T12:38:07.310Z,12.30
2019-03-02T12:41:12.114Z,12.50
2019-03-02T12:44:10.663Z,12.50
2019-03-02T12:58:49.220Z,12.70
2019-03-02T13:02:40.040Z,13.50
2019-03-02T13:05:57.476Z,13.50
2019-03-02T13:09:50.248Z,13.30
2019-03-02T13:13:40.072Z,12.90
2019-03-02T13:42:46.873Z,12.60
2019-03-02T14:09:20.182Z,12.10
2019-03-02T14:35:44.639Z,11.90
2019-03-02T15:21:19.103Z,11.40
2019-03-02T15:24:56.198Z,11.40
2019-03-02T15:28:39.118Z,11.20
2019-03-02T15:32:27.231Z,11.10
2019-03-02T15:47:32.268Z,10.80
2019-03-02T16:02:32.695Z,10.20
2019-03-02T16:14:05.554Z,10.40
2019-03-02T16:17:41.261Z,10.30
2019-03-02T16:21:01.789Z,10.30
2019-03-02T16:32:51.866Z,10.30
2019-03-02T16:36:44.955Z,10.30
2019-03-02T17:12:23.500Z,9.90
2019-03-02T17:15:47.998Z,9.90
2019-03-02T17:27:24.624Z,9.90
2019-03-02T17:35:03.214Z,9.90
2019-03-02T18:02:09.864Z,9.80
2019-03-02T18:25:28.325Z,9.90
2019-03-02T18:29:15.398Z,9.90
2019-03-02T18:58:24.100Z,9.90
2019-03-02T19:09:54.437Z,9.90
2019-03-02T19:21:42.213Z,9.70
2019-03-02T19:27:55.945Z,10.00
2019-03-02T19:39:01.219Z,10.00
2019-03-02T19:43:00.907Z,10.30
2019-03-02T20:01:02.798Z,10.10
2019-03-02T20:04:48.182Z,10.00
2019-03-02T20:07:47.702Z,10.00
2019-03-02T20:32:16.706Z,10.10
2019-03-02T20:35:30.276Z,10.10
2019-03-02T20:41:37.513Z,10.20
2019-03-02T20:48:03.069Z,10.20
2019-03-02T20:51:27.849Z,10.20
2019-03-02T20:57:52.045Z,10.30
2019-03-02T21:00:40.864Z,10.30
2019-03-02T21:11:17.295Z,10.30
2019-03-02T21:14:19.219Z,10.30
2019-03-02T21:17:18.040Z,10.30
2019-03-02T21:20:37.235Z,10.30
2019-03-02T21:27:37.912Z,10.30
2019-03-02T21:30:43.149Z,10.30
2019-03-02T21:34:06.256Z,10.20
2019-03-02T21:37:38.282Z,10.20
2019-03-02T21:44:04.022Z,10.20
2019-03-02T21:50:50.420Z,10.10
2019-03-02T21:57:02.134Z,9.90
2019-03-02T21:59:35.865Z,9.80
2019-03-02T22:02:30.829Z,9.80
2019-03-02T22:09:19.378Z,9.90
2019-03-02T22:12:27.574Z,9.90
2019-03-02T22:15:25.442Z,10.00
2019-03-02T22:21:49.251Z,10.00
2019-03-02T22:24:54.361Z,10.00
2019-03-02T22:27:40.068Z,10.10
2019-03-02T22:30:36.348Z,10.10
2019-03-02T22:33:32.492Z,10.10
2019-03-02T22:36:25.876Z,10.00
2019-03-02T22:39:27.006Z,10.10
2019-03-02T22:42:24.173Z,10.10
2019-03-02T22:45:42.120Z,10.10
2019-03-02T22:48:45.372Z,10.20
2019-03-02T22:51:29.258Z,10.20
2019-03-02T23:04:53.357Z,10.20
2019-03-02T23:07:34.364Z,10.20
2019-03-02T23:10:28.640Z,10.20
2019-03-02T23:14:11.215Z,10.10
2019-03-02T23:16:49.533Z,10.10
2019-03-02T23:19:44.341Z,10.00
2019-03-02T23:22:54.513Z,10.00
2019-03-02T23:26:13.187Z,10.00
2019-03-02T23:29:09.587Z,10.00
2019-03-02T23:31:54.570Z,10.00
2019-03-02T23:34:44.619Z,10.00
2019-03-02T23:37:20.888Z,10.00
2019-03-02T23:39:53.682Z,10.00
2019-03-02T23:42:59.192Z,10.00
2019-03-02T23:45:47.987Z,10.00
2019-03-02T23:52:50.104Z,10.10
2019-03-02T23:58:59.257Z,10.10
